createdAt,value
2023-02-22T00:00:43.418Z,2.30
2023-02-22T00:03:11.152Z,2.03
2023-02-22T00:05:45.131Z,2.00
2023-02-22T00:08:12.562Z,2.00
2023-02-22T00:10:39.924Z,1.90
2023-02-22T00:13:08.694Z,2.10
2023-02-22T00:15:36.650Z,1.80
2023-02-22T00:18:05.428Z,2.20
2023-02-22T00:20:32.789Z,2.10
2023-02-22T00:23:01.498Z,1.90
2023-02-22T00:25:28.849Z,2.07
2023-02-22T00:27:56.330Z,2.00
2023-02-22T00:30:26.746Z,2.10
2023-02-22T00:32:56.042Z,2.07
2023-02-22T00:35:25.237Z,1.90
2023-02-22T00:37:53.738Z,2.00
2023-02-22T00:40:23.302Z,2.10
2023-02-22T00:42:51.191Z,1.90
2023-02-22T00:45:20.994Z,2.10
2023-02-22T00:47:48.802Z,2.07
2023-02-22T00:50:17.273Z,1.80
2023-02-22T00:52:45.315Z,1.90
2023-02-22T00:55:17.083Z,1.80
2023-02-22T00:57:45.313Z,1.63
2023-02-22T01:00:25.754Z,1.93
2023-02-22T01:02:53.184Z,2.17
2023-02-22T01:05:21.980Z,2.00
2023-02-22T01:07:49.790Z,1.90
2023-02-22T01:10:19.434Z,2.07
2023-02-22T01:12:47.722Z,2.00
2023-02-22T01:15:16.135Z,1.90
2023-02-22T01:17:44.140Z,2.07
2023-02-22T01:20:15.306Z,2.20
2023-02-22T01:22:44.165Z,1.90
2023-02-22T01:25:12.662Z,2.00
2023-02-22T01:27:40.728Z,2.20
2023-02-22T01:30:08.910Z,2.20
2023-02-22T01:32:37.187Z,2.20
2023-02-22T01:35:06.036Z,1.90
2023-02-22T01:37:33.577Z,2.27
2023-02-22T01:40:01.064Z,2.30
2023-02-22T01:42:29.597Z,2.13
2023-02-22T01:45:15.778Z,1.93
2023-02-22T01:47:43.272Z,2.20
2023-02-22T01:50:10.770Z,2.30
2023-02-22T01:52:38.423Z,2.27
2023-02-22T01:55:05.955Z,2.10
2023-02-22T01:57:35.389Z,2.20
2023-02-22T02:00:11.799Z,2.30
2023-02-22T02:02:49.037Z,2.40
2023-02-22T02:05:20.086Z,2.47
2023-02-22T02:07:47.463Z,2.17
2023-02-22T02:10:15.594Z,2.33
2023-02-22T02:12:45.186Z,2.57
2023-02-22T02:15:24.229Z,2.17
2023-02-22T02:17:54.000Z,2.43
2023-02-22T02:20:25.077Z,2.27
2023-02-22T02:22:52.441Z,2.30
2023-02-22T02:25:21.177Z,2.43
2023-02-22T02:28:00.731Z,2.47
2023-02-22T02:30:46.915Z,2.50
2023-02-22T02:33:30.787Z,2.40
2023-02-22T02:36:21.588Z,2.47
2023-02-22T02:39:10.817Z,2.50
2023-02-22T02:41:42.881Z,2.60
2023-02-22T02:44:22.498Z,2.57
2023-02-22T02:47:14.673Z,2.40
2023-02-22T02:49:47.480Z,2.40
2023-02-22T02:52:16.119Z,2.80
2023-02-22T02:54:45.736Z,2.50
2023-02-22T02:57:14.912Z,2.57
2023-02-22T02:59:43.763Z,3.20
2023-02-22T03:02:20.307Z,3.07
2023-02-22T03:04:56.738Z,2.90
2023-02-22T03:07:27.206Z,3.10
2023-02-22T03:09:59.413Z,3.10
2023-02-22T03:12:27.843Z,3.10
2023-02-22T03:15:21.958Z,3.77
2023-02-22T03:17:50.345Z,2.90
2023-02-22T03:20:40.392Z,3.13
2023-02-22T03:23:11.408Z,3.30
2023-02-22T03:25:50.790Z,3.07
2023-02-22T03:28:20.412Z,3.43
2023-02-22T03:31:10.992Z,3.03
2023-02-22T03:33:43.708Z,3.03
2023-02-22T03:36:16.830Z,3.37
2023-02-22T03:38:45.172Z,3.30
2023-02-22T03:41:16.248Z,2.83
2023-02-22T03:43:46.523Z,3.20
2023-02-22T03:46:19.357Z,3.13
2023-02-22T03:48:57.435Z,3.27
2023-02-22T03:51:25.448Z,3.33
2023-02-22T03:53:58.478Z,3.00
2023-02-22T03:56:36.288Z,2.90
2023-02-22T03:59:05.873Z,3.23
2023-02-22T04:01:33.312Z,3.27
2023-02-22T04:04:00.964Z,3.17
2023-02-22T04:06:29.332Z,3.10
2023-02-22T04:08:57.473Z,3.30
2023-02-22T04:11:24.912Z,2.90
2023-02-22T04:13:54.860Z,3.03
2023-02-22T04:16:22.700Z,3.30
2023-02-22T04:18:51.397Z,2.70
2023-02-22T04:21:20.099Z,3.00
2023-02-22T04:23:50.035Z,2.73
2023-02-22T04:26:18.269Z,2.63
2023-02-22T04:28:51.513Z,2.93
2023-02-22T04:31:23.104Z,3.10
2023-02-22T04:33:51.671Z,3.30
2023-02-22T04:36:24.847Z,2.90
2023-02-22T04:38:55.175Z,3.17
2023-02-22T04:41:25.093Z,2.87
2023-02-22T04:43:53.116Z,2.80
2023-02-22T04:46:25.425Z,2.83
2023-02-22T04:58:41.244Z,3.13
2023-02-22T05:01:08.683Z,3.23
2023-02-22T05:03:38.558Z,3.07
2023-02-22T05:06:06.046Z,3.10
2023-02-22T05:08:33.447Z,3.57
2023-02-22T05:11:00.815Z,3.20
2023-02-22T05:13:28.102Z,3.30
2023-02-22T05:15:55.583Z,3.30
2023-02-22T05:18:22.939Z,3.10
2023-02-22T05:20:50.408Z,3.57
2023-02-22T05:23:17.761Z,3.17
2023-02-22T05:25:46.061Z,3.33
2023-02-22T05:28:14.752Z,2.90
2023-02-22T05:30:42.225Z,2.93
2023-02-22T05:33:10.537Z,3.10
2023-02-22T05:35:39.241Z,3.13
2023-02-22T05:38:07.078Z,3.10
2023-02-22T05:40:35.066Z,2.90
2023-02-22T05:43:03.055Z,3.37
2023-02-22T05:45:30.644Z,3.23
2023-02-22T05:47:58.241Z,3.23
2023-02-22T05:50:26.331Z,3.10
2023-02-22T05:52:54.110Z,3.30
2023-02-22T05:55:23.207Z,3.23
2023-02-22T05:57:50.558Z,2.80
2023-02-22T06:00:23.328Z,2.90
2023-02-22T06:03:01.868Z,2.80
2023-02-22T06:05:29.739Z,2.90
2023-02-22T06:07:57.731Z,2.70
2023-02-22T06:10:25.101Z,2.97
2023-02-22T06:12:52.948Z,2.97
2023-02-22T06:15:21.439Z,3.07
2023-02-22T06:17:49.256Z,2.87
2023-02-22T06:20:17.878Z,2.80
2023-02-22T06:22:45.724Z,3.03
2023-02-22T06:25:18.028Z,2.83
2023-02-22T06:27:45.407Z,3.77
2023-02-22T06:30:14.503Z,3.60
2023-02-22T06:32:41.882Z,3.00
2023-02-22T06:35:09.346Z,3.27
2023-02-22T06:37:36.856Z,3.37
2023-02-22T06:40:05.798Z,2.97
2023-02-22T06:42:33.401Z,2.90
2023-02-22T06:45:00.829Z,2.97
2023-02-22T06:47:28.644Z,2.93
2023-02-22T06:49:56.830Z,2.83
2023-02-22T06:52:24.643Z,2.93
2023-02-22T06:54:52.160Z,3.10
2023-02-22T06:57:19.776Z,2.80
2023-02-22T06:59:47.172Z,3.30
2023-02-22T07:02:14.777Z,3.60
2023-02-22T07:04:43.569Z,3.33
2023-02-22T07:07:11.188Z,3.00
2023-02-22T07:09:38.554Z,3.53
2023-02-22T07:12:06.350Z,3.70
2023-02-22T07:14:33.743Z,2.97
2023-02-22T07:17:01.076Z,3.30
2023-02-22T07:19:28.414Z,3.80
2023-02-22T07:21:59.397Z,3.90
2023-02-22T07:24:28.569Z,3.00
2023-02-22T07:26:56.857Z,3.67
2023-02-22T07:29:24.189Z,3.73
2023-02-22T07:31:51.652Z,3.60
2023-02-22T07:34:19.081Z,3.53
2023-02-22T07:36:46.423Z,3.53
2023-02-22T07:39:13.894Z,3.50
2023-02-22T07:41:41.245Z,4.13
2023-02-22T07:44:22.222Z,4.37
2023-02-22T07:46:50.414Z,3.30
2023-02-22T07:49:17.912Z,3.23
2023-02-22T07:51:45.535Z,3.27
2023-02-22T07:54:12.937Z,3.10
2023-02-22T07:56:45.369Z,3.27
2023-02-22T07:59:12.856Z,3.33
2023-02-22T08:01:40.209Z,3.00
2023-02-22T08:04:07.805Z,3.23
2023-02-22T08:06:35.161Z,3.30
2023-02-22T08:09:02.543Z,3.87
2023-02-22T08:11:30.121Z,3.60
2023-02-22T08:13:57.590Z,3.23
2023-02-22T08:16:24.974Z,3.30
2023-02-22T08:18:52.339Z,3.60
2023-02-22T08:21:19.900Z,3.20
2023-02-22T08:23:51.433Z,3.30
2023-02-22T08:26:20.797Z,3.10
2023-02-22T08:28:49.120Z,3.70
2023-02-22T08:31:16.726Z,4.10
2023-02-22T08:33:44.244Z,4.50
2023-02-22T08:36:11.582Z,4.00
2023-02-22T08:38:39.037Z,3.60
2023-02-22T08:41:07.015Z,3.77
2023-02-22T08:43:34.408Z,4.50
2023-02-22T08:46:01.849Z,5.03
2023-02-22T08:48:29.168Z,5.17
2023-02-22T08:50:56.706Z,4.87
2023-02-22T08:53:24.073Z,4.40
2023-02-22T08:55:51.536Z,4.57
2023-02-22T08:58:19.037Z,4.60
2023-02-22T09:00:46.474Z,4.33
2023-02-22T09:03:15.590Z,4.27
2023-02-22T09:05:43.740Z,5.10
2023-02-22T09:08:11.218Z,4.90
2023-02-22T09:10:38.615Z,4.93
2023-02-22T09:13:06.587Z,4.70
2023-02-22T09:15:36.304Z,4.50
2023-02-22T09:18:04.170Z,4.80
2023-02-22T09:20:31.610Z,4.80
2023-02-22T09:22:59.616Z,4.77
2023-02-22T09:25:27.460Z,5.10
2023-02-22T09:27:55.205Z,5.70
2023-02-22T09:30:25.228Z,4.37
2023-02-22T09:32:53.845Z,4.40
2023-02-22T09:35:26.962Z,4.57
2023-02-22T09:37:57.893Z,4.73
2023-02-22T09:40:29.768Z,4.20
2023-02-22T09:42:57.348Z,4.03
2023-02-22T09:45:28.288Z,4.40
2023-02-22T09:48:15.256Z,4.80
2023-02-22T09:50:50.454Z,4.07
2023-02-22T09:53:29.769Z,4.53
2023-02-22T09:56:03.523Z,5.10
2023-02-22T09:58:36.789Z,4.97
2023-02-22T10:01:24.214Z,5.13
2023-02-22T10:03:56.323Z,5.87
2023-02-22T10:06:25.125Z,5.37
2023-02-22T10:08:56.436Z,6.33
2023-02-22T10:11:33.305Z,5.37
2023-02-22T10:14:17.549Z,6.07
2023-02-22T10:16:54.678Z,6.00
2023-02-22T10:19:40.938Z,5.60
2023-02-22T10:22:15.276Z,6.07
2023-02-22T10:24:58.128Z,5.90
2023-02-22T10:27:28.576Z,4.90
2023-02-22T10:29:59.638Z,5.10
2023-02-22T10:32:30.091Z,5.80
2023-02-22T10:34:59.160Z,5.47
2023-02-22T10:37:27.926Z,5.47
2023-02-22T10:40:17.533Z,5.60
2023-02-22T10:42:45.116Z,5.30
2023-02-22T10:45:26.849Z,5.37
2023-02-22T10:47:56.329Z,5.23
2023-02-22T10:50:23.791Z,4.57
2023-02-22T10:52:51.127Z,5.40
2023-02-22T10:55:18.469Z,5.33
2023-02-22T10:57:47.459Z,5.00
2023-02-22T11:00:19.805Z,5.00
2023-02-22T11:02:52.702Z,4.07
2023-02-22T11:05:32.488Z,4.63
2023-02-22T11:08:20.128Z,4.60
2023-02-22T11:10:53.925Z,4.27
2023-02-22T11:13:28.847Z,4.23
2023-02-22T11:15:59.346Z,4.40
2023-02-22T11:18:28.950Z,3.97
2023-02-22T11:21:00.284Z,3.80
2023-02-22T11:23:27.670Z,3.70
2023-02-22T11:26:02.354Z,3.53
2023-02-22T11:28:31.326Z,3.37
2023-02-22T11:31:01.332Z,3.33
2023-02-22T11:33:29.794Z,3.67
2023-02-22T11:35:59.360Z,3.57
2023-02-22T11:38:28.403Z,3.30
2023-02-22T11:41:14.799Z,3.33
2023-02-22T11:43:46.176Z,3.07
2023-02-22T11:46:15.191Z,3.27
2023-02-22T11:48:54.751Z,3.20
2023-02-22T11:51:25.114Z,3.17
2023-02-22T11:53:58.453Z,3.70
2023-02-22T11:56:37.958Z,3.70
2023-02-22T11:59:17.690Z,3.03
2023-02-22T12:01:51.405Z,3.13
2023-02-22T12:04:33.354Z,3.03
2023-02-22T12:07:09.991Z,3.10
2023-02-22T12:09:47.517Z,2.67
2023-02-22T12:12:30.324Z,3.97
2023-02-22T12:15:13.982Z,3.57
2023-02-22T12:18:00.855Z,5.03
2023-02-22T12:20:44.273Z,4.60
2023-02-22T12:23:19.638Z,3.70
2023-02-22T12:26:02.200Z,3.50
2023-02-22T12:28:38.982Z,4.23
2023-02-22T12:31:12.257Z,3.73
2023-02-22T12:33:46.665Z,2.80
2023-02-22T12:36:16.420Z,4.07
2023-02-22T12:38:45.242Z,3.17
2023-02-22T12:41:18.439Z,3.40
2023-02-22T12:43:46.039Z,2.60
2023-02-22T12:46:26.012Z,3.00
2023-02-22T12:49:13.986Z,4.20
2023-02-22T12:52:03.020Z,7.23
2023-02-22T12:54:51.039Z,25.30
2023-02-22T12:57:21.316Z,11.93
2023-02-22T12:59:57.853Z,3.40
2023-02-22T13:02:31.840Z,3.00
2023-02-22T13:04:59.263Z,2.80
2023-02-22T13:07:26.939Z,2.80
2023-02-22T13:10:14.404Z,3.30
2023-02-22T13:12:52.680Z,5.27
2023-02-22T13:15:23.606Z,3.60
2023-02-22T13:17:54.123Z,8.03
2023-02-22T13:20:21.548Z,2.97
2023-02-22T13:23:07.769Z,4.10
2023-02-22T13:25:41.693Z,2.90
2023-02-22T13:28:08.986Z,2.33
2023-02-22T13:30:38.752Z,2.57
2023-02-22T13:33:08.883Z,2.47
2023-02-22T13:35:36.448Z,2.30
2023-02-22T13:38:03.720Z,2.27
2023-02-22T13:40:46.182Z,2.50
2023-02-22T13:43:28.849Z,2.40
2023-02-22T13:46:00.132Z,2.30
2023-02-22T13:48:42.953Z,2.57
2023-02-22T13:51:15.003Z,2.20
2023-02-22T13:53:44.910Z,2.17
2023-02-22T13:56:14.647Z,2.43
2023-02-22T13:58:49.912Z,2.03
2023-02-22T14:01:37.611Z,2.20
2023-02-22T14:04:22.315Z,2.13
2023-02-22T14:06:51.253Z,2.00
2023-02-22T14:09:38.513Z,2.20
2023-02-22T14:12:06.069Z,2.20
2023-02-22T14:14:33.374Z,2.00
2023-02-22T14:17:17.929Z,2.20
2023-02-22T14:20:00.662Z,2.20
2023-02-22T14:22:28.969Z,2.07
2023-02-22T14:24:57.962Z,2.10
2023-02-22T14:27:25.355Z,2.27
2023-02-22T14:29:54.545Z,1.97
2023-02-22T14:32:30.792Z,2.30
2023-02-22T14:35:00.827Z,2.40
2023-02-22T14:37:33.769Z,2.10
2023-02-22T14:40:12.976Z,1.83
2023-02-22T14:42:44.333Z,1.90
2023-02-22T14:45:18.477Z,2.40
2023-02-22T14:48:01.300Z,2.00
2023-02-22T14:50:55.021Z,2.20
2023-02-22T14:53:40.948Z,2.20
2023-02-22T14:56:11.794Z,2.07
2023-02-22T14:58:49.391Z,2.13
2023-02-22T15:01:20.581Z,2.10
2023-02-22T15:03:51.499Z,2.07
2023-02-22T15:06:25.803Z,2.40
2023-02-22T15:09:11.853Z,2.10
2023-02-22T15:11:39.252Z,2.30
2023-02-22T15:14:26.330Z,2.30
2023-02-22T15:16:55.647Z,1.90
2023-02-22T15:19:27.710Z,2.00
2023-02-22T15:21:55.870Z,2.10
2023-02-22T15:24:27.799Z,1.73
2023-02-22T15:27:02.182Z,2.20
2023-02-22T15:29:37.128Z,1.40
2023-02-22T15:32:18.942Z,1.87
2023-02-22T15:34:46.385Z,2.03
2023-02-22T15:37:25.093Z,1.90
2023-02-22T15:39:59.538Z,1.70
2023-02-22T15:42:30.505Z,1.87
2023-02-22T15:44:58.147Z,1.70
2023-02-22T15:47:27.520Z,1.55
2023-02-22T15:50:15.370Z,1.50
2023-02-22T15:52:54.756Z,1.42
2023-02-22T15:55:25.613Z,1.40
2023-02-22T15:57:53.382Z,1.30
2023-02-22T16:00:23.974Z,1.48
2023-02-22T16:02:51.512Z,1.40
2023-02-22T16:05:20.002Z,1.73
2023-02-22T16:07:51.056Z,1.48
2023-02-22T16:10:22.417Z,1.30
2023-02-22T16:12:49.914Z,1.35
2023-02-22T16:15:18.542Z,1.30
2023-02-22T16:18:00.008Z,1.37
2023-02-22T16:20:30.725Z,1.23
2023-02-22T16:22:58.653Z,1.60
2023-02-22T16:25:32.910Z,1.20
2023-02-22T16:28:06.363Z,1.30
2023-02-22T16:30:38.097Z,1.63
2023-02-22T16:33:13.533Z,1.30
2023-02-22T16:35:51.740Z,1.30
2023-02-22T16:38:19.565Z,1.20
2023-02-22T16:40:50.600Z,1.40
2023-02-22T16:43:25.157Z,1.30
2023-02-22T16:45:55.447Z,1.30
2023-02-22T16:48:23.957Z,1.40
2023-02-22T16:50:52.374Z,1.20
2023-02-22T16:53:20.705Z,1.30
2023-02-22T16:55:48.369Z,1.63
2023-02-22T16:58:17.283Z,1.40
2023-02-22T17:00:44.866Z,1.30
2023-02-22T17:03:16.039Z,1.23
2023-02-22T17:05:43.553Z,1.40
2023-02-22T17:08:11.193Z,1.20
2023-02-22T17:10:38.671Z,1.40
2023-02-22T17:13:22.440Z,1.50
2023-02-22T17:15:52.175Z,1.40
2023-02-22T17:18:23.745Z,1.30
2023-02-22T17:20:55.125Z,1.37
2023-02-22T17:23:23.551Z,1.50
2023-02-22T17:25:50.874Z,1.20
2023-02-22T17:28:18.317Z,1.20
2023-02-22T17:30:48.870Z,1.60
2023-02-22T17:33:17.658Z,1.30
2023-02-22T17:35:47.024Z,1.40
2023-02-22T17:38:18.489Z,1.20
2023-02-22T17:40:52.058Z,1.37
2023-02-22T17:43:19.711Z,1.37
2023-02-22T17:45:47.688Z,1.53
2023-02-22T17:48:15.924Z,1.53
2023-02-22T17:50:43.721Z,1.60
2023-02-22T17:53:11.477Z,1.60
2023-02-22T17:55:40.685Z,1.50
2023-02-22T17:58:14.605Z,1.33
2023-02-22T18:00:47.132Z,1.47
2023-02-22T18:03:16.473Z,1.40
2023-02-22T18:05:46.350Z,1.30
2023-02-22T18:08:14.360Z,1.50
2023-02-22T18:10:44.965Z,1.50
2023-02-22T18:13:18.087Z,1.50
2023-02-22T18:15:46.621Z,1.53
2023-02-22T18:18:14.969Z,1.77
2023-02-22T18:20:44.618Z,1.97
2023-02-22T18:23:14.398Z,2.00
2023-02-22T18:25:57.165Z,1.70
2023-02-22T18:28:31.479Z,1.80
2023-02-22T18:31:01.996Z,1.60
2023-02-22T18:33:29.389Z,1.43
2023-02-22T18:35:56.814Z,1.50
2023-02-22T18:38:24.645Z,1.50
2023-02-22T18:41:05.608Z,1.90
2023-02-22T18:43:35.524Z,1.90
2023-02-22T18:46:22.365Z,1.70
2023-02-22T18:48:52.241Z,1.67
2023-02-22T18:51:19.597Z,1.70
2023-02-22T18:53:47.999Z,1.80
2023-02-22T18:56:18.003Z,1.97
2023-02-22T18:58:45.543Z,1.90
2023-02-22T19:01:16.274Z,1.53
2023-02-22T19:03:43.682Z,1.87
2023-02-22T19:06:11.049Z,1.77
2023-02-22T19:08:39.733Z,1.50
2023-02-22T19:11:19.199Z,1.93
2023-02-22T19:13:50.905Z,1.80
2023-02-22T19:16:20.534Z,1.67
2023-02-22T19:18:49.203Z,2.00
2023-02-22T19:21:17.056Z,2.00
2023-02-22T19:23:48.650Z,1.90
2023-02-22T19:26:21.174Z,1.80
2023-02-22T19:28:49.119Z,2.00
2023-02-22T19:31:21.093Z,1.90
2023-02-22T19:33:51.385Z,2.13
2023-02-22T19:36:19.830Z,2.27
2023-02-22T19:38:47.515Z,2.33
2023-02-22T19:41:19.936Z,2.43
2023-02-22T19:43:48.568Z,2.33
2023-02-22T19:46:21.177Z,2.53
2023-02-22T19:48:49.453Z,1.90
2023-02-22T19:51:17.672Z,2.30
2023-02-22T19:53:45.572Z,2.10
2023-02-22T19:56:17.263Z,2.00
2023-02-22T19:58:46.228Z,2.43
2023-02-22T20:01:19.985Z,2.90
2023-02-22T20:03:47.501Z,3.60
2023-02-22T20:06:16.630Z,3.43
2023-02-22T20:08:43.982Z,3.37
2023-02-22T20:11:11.782Z,3.40
2023-02-22T20:13:39.751Z,3.37
2023-02-22T20:16:09.400Z,3.23
2023-02-22T20:18:36.855Z,3.67
2023-02-22T20:21:11.066Z,3.80
2023-02-22T20:23:41.474Z,4.23
2023-02-22T20:26:14.434Z,4.27
2023-02-22T20:28:42.132Z,4.13
2023-02-22T20:31:11.362Z,4.40
2023-02-22T20:33:41.736Z,4.23
2023-02-22T20:36:13.794Z,4.23
2023-02-22T20:38:41.427Z,3.93
2023-02-22T20:41:10.096Z,3.93
2023-02-22T20:43:37.407Z,3.50
2023-02-22T20:46:05.378Z,3.50
2023-02-22T20:48:33.029Z,3.50
2023-02-22T20:51:10.945Z,4.03
2023-02-22T20:53:43.550Z,4.10
2023-02-22T20:56:15.027Z,3.70
2023-02-22T20:58:42.941Z,3.60
2023-02-22T21:01:14.429Z,3.80
2023-02-22T21:03:42.371Z,4.03
2023-02-22T21:06:11.818Z,4.13
2023-02-22T21:08:39.227Z,3.50
2023-02-22T21:11:11.456Z,3.90
2023-02-22T21:13:39.115Z,3.57
2023-02-22T21:16:07.306Z,3.30
2023-02-22T21:18:34.748Z,3.67
2023-02-22T21:21:12.644Z,3.57
2023-02-22T21:23:40.908Z,3.40
2023-02-22T21:26:13.380Z,2.73
2023-02-22T21:28:51.162Z,3.30
2023-02-22T21:31:20.498Z,3.40
2023-02-22T21:33:50.471Z,3.30
2023-02-22T21:36:18.571Z,3.53
2023-02-22T21:38:47.008Z,3.13
2023-02-22T21:41:15.377Z,6.50
2023-02-22T21:43:44.712Z,4.67
2023-02-22T21:46:12.547Z,4.43
2023-02-22T21:48:45.166Z,3.20
2023-02-22T21:51:14.097Z,3.50
2023-02-22T21:53:46.091Z,3.40
2023-02-22T21:56:15.576Z,3.30
2023-02-22T21:58:43.963Z,3.70
2023-02-22T22:01:17.328Z,3.63
2023-02-22T22:03:45.896Z,3.20
2023-02-22T22:06:14.288Z,2.97
2023-02-22T22:08:42.252Z,3.20
2023-02-22T22:11:10.569Z,3.30
2023-02-22T22:13:41.263Z,3.00
2023-02-22T22:16:15.318Z,3.00
2023-02-22T22:18:43.259Z,2.90
2023-02-22T22:21:12.529Z,2.73
2023-02-22T22:23:40.280Z,3.00
2023-02-22T22:26:11.606Z,3.03
2023-02-22T22:28:40.147Z,2.90
2023-02-22T22:31:08.236Z,2.73
2023-02-22T22:33:36.744Z,2.93
2023-02-22T22:36:05.413Z,2.80
2023-02-22T22:38:33.637Z,2.80
2023-02-22T22:41:01.400Z,2.83
2023-02-22T22:43:29.919Z,3.00
2023-02-22T22:46:00.720Z,2.73
2023-02-22T22:48:29.284Z,2.77
2023-02-22T22:50:59.635Z,2.87
2023-02-22T22:53:26.994Z,2.90
2023-02-22T22:55:54.403Z,2.60
2023-02-22T22:58:21.720Z,2.53
2023-02-22T23:00:49.173Z,2.80
2023-02-22T23:03:17.496Z,2.80
2023-02-22T23:05:46.323Z,2.80
2023-02-22T23:08:13.680Z,2.80
2023-02-22T23:10:42.081Z,2.53
2023-02-22T23:13:10.278Z,2.83
2023-02-22T23:15:42.349Z,2.60
2023-02-22T23:18:10.085Z,2.70
2023-02-22T23:20:39.059Z,2.90
2023-02-22T23:23:06.660Z,2.67
2023-02-22T23:25:34.535Z,2.73
2023-02-22T23:28:01.979Z,3.10
2023-02-22T23:30:30.675Z,2.70
2023-02-22T23:33:01.236Z,2.90
2023-02-22T23:35:28.662Z,2.83
2023-02-22T23:37:58.033Z,3.03
2023-02-22T23:40:26.032Z,2.97
2023-02-22T23:42:54.656Z,3.00
2023-02-22T23:45:22.891Z,2.90
2023-02-22T23:47:56.221Z,2.70
2023-02-22T23:50:27.610Z,2.90
2023-02-22T23:52:57.090Z,2.50
2023-02-22T23:55:28.342Z,2.93
2023-02-22T23:57:59.438Z,2.50
